Time;durP1;ratioP1;P1;durP2;ratioP2;P2;SDS_P1;SDS_P2;PMS_P1;PMS_P2;Temp;Humidity;BMP_temperature;BMP_pressure;BME280_temperature;BME280_humidity;BME280_pressure;Samples;Min_cycle;Max_cycle;Signal;HPM_P1;HPM_P2
2022/03/29 00:00:57;;;;;;;31.65;19.40;;;;;;;;;;5030646;28;20141;-68
2022/03/29 00:03:23;;;;;;;32.38;19.77;;;;;;;;;;5039713;28;20150;-68
2022/03/29 00:05:49;;;;;;;30.13;19.90;;;;;;;;;;5038410;28;20422;-69
2022/03/29 00:08:16;;;;;;;29.80;20.00;;;;;;;;;;5048136;28;20677;-68
2022/03/29 00:10:42;;;;;;;32.25;21.75;;;;;;;;;;5042916;28;20049;-69
2022/03/29 00:13:08;;;;;;;31.05;19.45;;;;;;;;;;5034200;28;20057;-69
2022/03/29 00:15:35;;;;;;;29.50;19.75;;;;;;;;;;5047172;28;20489;-69
2022/03/29 00:18:01;;;;;;;28.55;19.40;;;;;;;;;;5033138;28;20052;-69
2022/03/29 00:20:28;;;;;;;29.20;20.23;;;;;;;;;;5051783;28;20056;-68
2022/03/29 00:22:54;;;;;;;32.47;20.02;;;;;;;;;;5043276;28;20044;-69
2022/03/29 00:25:20;;;;;;;29.35;19.33;;;;;;;;;;5038532;28;20164;-69
2022/03/29 00:27:49;;;;;;;36.70;19.83;;;;;;;;;;5047956;28;20587;-69
2022/03/29 00:30:16;;;;;;;;;;;;;;;;;;5033307;28;20049;-68
2022/03/29 00:32:44;;;;;;;29.85;19.38;;;;;;;;;;5047736;28;19929;-69
2022/03/29 00:35:10;;;;;;;28.70;19.67;;;;;;;;;;5040288;28;20041;-69
2022/03/29 00:37:41;;;;;;;30.42;19.67;;;;;;;;;;5042437;28;20045;-69
2022/03/29 00:40:09;;;;;;;31.50;20.25;;;;;;;;;;5027349;28;20051;-68
2022/03/29 00:42:36;;;;;;;31.08;21.17;;;;;;;;;;5040531;28;20777;-69
2022/03/29 00:45:03;;;;;;;38.35;21.95;;;;;;;;;;5038554;28;20049;-69
2022/03/29 00:47:30;;;;;;;32.92;20.77;;;;;;;;;;5029761;28;20758;-69
2022/03/29 00:49:57;;;;;;;34.90;22.33;;;;;;;;;;5043455;28;20045;-68
2022/03/29 00:52:23;;;;;;;32.78;21.65;;;;;;;;;;5036539;28;20046;-69
2022/03/29 00:54:49;;;;;;;31.23;19.55;;;;;;;;;;5029917;28;20056;-68
2022/03/29 00:57:16;;;;;;;33.17;20.30;;;;;;;;;;5039214;28;20048;-68
2022/03/29 00:59:43;;;;;;;34.13;21.00;;;;;;;;;;5036604;28;20065;-68
2022/03/29 01:02:10;;;;;;;31.80;21.38;;;;;;;;;;5040031;28;20490;-67
2022/03/29 01:04:36;;;;;;;30.77;19.98;;;;;;;;;;5028403;28;20619;-67
2022/03/29 01:07:03;;;;;;;35.80;21.52;;;;;;;;;;5039419;28;20053;-67
2022/03/29 01:09:30;;;;;;;30.08;20.92;;;;;;;;;;5035341;28;20057;-67
2022/03/29 01:11:57;;;;;;;35.90;21.73;;;;;;;;;;5037587;28;20063;-67
2022/03/29 01:14:24;;;;;;;33.70;21.05;;;;;;;;;;5037684;28;20049;-68
2022/03/29 01:19:36;;;;;;;33.42;21.58;;;;;;;;;;5040672;28;20438;-67
2022/03/29 01:22:03;;;;;;;34.45;22.65;;;;;;;;;;5036791;28;20090;-68
2022/03/29 01:24:30;;;;;;;35.83;21.90;;;;;;;;;;5040013;28;20044;-67
2022/03/29 01:26:57;;;;;;;34.75;22.23;;;;;;;;;;5034590;28;20072;-68
2022/03/29 01:29:23;;;;;;;29.38;19.05;;;;;;;;;;5039917;28;20052;-69
2022/03/29 01:31:50;;;;;;;34.13;22.30;;;;;;;;;;5046721;28;20540;-69
2022/03/29 01:34:17;;;;;;;32.80;21.75;;;;;;;;;;5030438;28;20060;-69
2022/03/29 01:36:44;;;;;;;30.40;20.45;;;;;;;;;;5027761;28;20056;-69
2022/03/29 01:39:11;;;;;;;36.53;22.60;;;;;;;;;;5027215;28;20048;-68
2022/03/29 01:41:40;;;;;;;30.80;20.48;;;;;;;;;;5043553;28;20045;-68
2022/03/29 01:44:07;;;;;;;31.73;20.80;;;;;;;;;;5039956;28;20056;-69
2022/03/29 01:46:33;;;;;;;36.30;21.02;;;;;;;;;;5038550;28;20506;-68
2022/03/29 01:49:01;;;;;;;34.15;21.90;;;;;;;;;;5040502;28;20501;-68
2022/03/29 01:51:27;;;;;;;32.03;20.73;;;;;;;;;;5037655;28;20036;-68
2022/03/29 01:53:54;;;;;;;35.63;21.80;;;;;;;;;;5045154;28;20052;-68
2022/03/29 01:56:21;;;;;;;33.10;21.20;;;;;;;;;;5038989;28;20053;-68
2022/03/29 01:58:47;;;;;;;36.50;20.50;;;;;;;;;;5039751;28;20060;-68
2022/03/29 02:01:15;;;;;;;36.63;23.02;;;;;;;;;;5035839;28;20049;-68
2022/03/29 02:03:42;;;;;;;37.25;23.02;;;;;;;;;;5032832;28;20057;-68
2022/03/29 02:06:08;;;;;;;34.75;21.95;;;;;;;;;;5034376;28;20414;-68
2022/03/29 02:08:35;;;;;;;36.40;23.83;;;;;;;;;;5039211;28;20068;-69
2022/03/29 02:11:01;;;;;;;35.13;20.63;;;;;;;;;;5048783;28;20417;-68
2022/03/29 02:13:27;;;;;;;33.80;20.85;;;;;;;;;;5036771;28;20079;-68
2022/03/29 02:15:54;;;;;;;30.85;20.73;;;;;;;;;;5050946;28;20762;-68
2022/03/29 02:18:20;;;;;;;29.55;20.30;;;;;;;;;;5030612;28;20049;-68
2022/03/29 02:20:47;;;;;;;31.48;21.67;;;;;;;;;;5024504;28;20060;-68
2022/03/29 02:23:15;;;;;;;36.33;21.67;;;;;;;;;;5054657;28;20049;-68
2022/03/29 02:25:45;;;;;;;34.20;22.05;;;;;;;;;;5040063;28;20533;-68
2022/03/29 02:28:11;;;;;;;32.83;21.25;;;;;;;;;;5047748;28;20049;-69
2022/03/29 02:30:38;;;;;;;31.77;22.05;;;;;;;;;;5033568;28;20045;-69
2022/03/29 02:33:05;;;;;;;37.53;21.27;;;;;;;;;;5048517;28;20124;-68
2022/03/29 02:35:32;;;;;;;33.85;21.30;;;;;;;;;;5037122;28;20049;-68
2022/03/29 02:37:59;;;;;;;33.67;21.90;;;;;;;;;;5051718;28;20057;-68
2022/03/29 02:40:25;;;;;;;34.85;21.98;;;;;;;;;;5046181;28;20037;-68
2022/03/29 02:42:52;;;;;;;35.03;21.80;;;;;;;;;;5036033;28;20053;-69
2022/03/29 02:45:20;;;;;;;37.92;22.80;;;;;;;;;;5041523;28;20072;-69
2022/03/29 02:47:47;;;;;;;35.38;21.73;;;;;;;;;;5024154;28;20049;-68
2022/03/29 02:50:14;;;;;;;34.35;21.50;;;;;;;;;;5049140;28;20151;-68
2022/03/29 02:52:44;;;;;;;36.15;21.77;;;;;;;;;;5029785;28;20052;-68
2022/03/29 02:55:11;;;;;;;33.33;21.65;;;;;;;;;;5037954;28;20049;-68
2022/03/29 02:57:37;;;;;;;34.45;21.45;;;;;;;;;;5047007;28;20055;-69
2022/03/29 03:00:05;;;;;;;35.50;21.17;;;;;;;;;;5036088;28;20442;-68
2022/03/29 03:02:32;;;;;;;35.20;21.25;;;;;;;;;;5051003;28;20497;-68
2022/03/29 03:04:59;;;;;;;33.88;19.50;;;;;;;;;;5040184;28;20052;-68
2022/03/29 03:07:26;;;;;;;34.72;20.60;;;;;;;;;;5048607;28;20053;-68
2022/03/29 03:09:52;;;;;;;37.78;21.35;;;;;;;;;;5034797;28;20517;-68
2022/03/29 03:12:19;;;;;;;36.92;22.48;;;;;;;;;;5047789;28;20049;-68
2022/03/29 03:14:46;;;;;;;35.45;22.40;;;;;;;;;;5037306;28;20055;-68
2022/03/29 03:17:12;;;;;;;34.83;21.67;;;;;;;;;;5039438;28;20405;-68
2022/03/29 03:19:39;;;;;;;36.95;22.40;;;;;;;;;;5050422;28;20069;-68
2022/03/29 03:22:05;;;;;;;35.63;21.75;;;;;;;;;;5039315;28;20496;-68
2022/03/29 03:24:31;;;;;;;37.10;22.50;;;;;;;;;;5055180;28;20722;-67
2022/03/29 03:26:58;;;;;;;36.42;22.35;;;;;;;;;;5031723;28;20041;-69
2022/03/29 03:29:24;;;;;;;36.92;22.83;;;;;;;;;;5041533;28;20057;-67
2022/03/29 03:31:50;;;;;;;35.72;22.77;;;;;;;;;;5041262;28;20049;-68
2022/03/29 03:34:17;;;;;;;39.05;23.13;;;;;;;;;;5037646;28;20432;-69
2022/03/29 03:36:43;;;;;;;39.28;23.02;;;;;;;;;;5044389;28;20065;-69
2022/03/29 03:39:09;;;;;;;39.85;22.65;;;;;;;;;;5034880;28;20053;-69
2022/03/29 03:41:37;;;;;;;42.50;24.05;;;;;;;;;;5047125;28;20056;-69
2022/03/29 03:44:04;;;;;;;40.13;22.17;;;;;;;;;;5028692;28;20060;-68
2022/03/29 03:46:30;;;;;;;37.55;22.17;;;;;;;;;;5035693;28;20049;-69
2022/03/29 03:48:57;;;;;;;37.58;23.27;;;;;;;;;;5031464;28;20057;-70
2022/03/29 03:51:23;;;;;;;42.17;23.63;;;;;;;;;;5039102;28;20055;-69
2022/03/29 03:53:50;;;;;;;42.17;23.92;;;;;;;;;;5044311;28;20257;-69
2022/03/29 03:56:16;;;;;;;39.38;22.98;;;;;;;;;;5025142;28;20041;-69
2022/03/29 03:58:42;;;;;;;37.83;22.35;;;;;;;;;;5039074;28;20417;-69
2022/03/29 04:01:11;;;;;;;36.50;22.23;;;;;;;;;;5040314;28;20051;-69
2022/03/29 04:03:38;;;;;;;39.25;22.50;;;;;;;;;;5045813;28;20063;-68
2022/03/29 04:06:05;;;;;;;42.53;23.35;;;;;;;;;;5032524;28;20057;-68
2022/03/29 04:08:31;;;;;;;36.83;22.98;;;;;;;;;;5044466;28;20497;-69
2022/03/29 04:10:57;;;;;;;39.85;22.48;;;;;;;;;;5045942;28;20070;-71
2022/03/29 04:13:23;;;;;;;40.42;21.92;;;;;;;;;;5032452;28;20053;-68
2022/03/29 04:15:50;;;;;;;36.53;22.25;;;;;;;;;;5043136;28;20048;-68
2022/03/29 04:18:17;;;;;;;37.38;22.30;;;;;;;;;;5042528;28;20040;-68
2022/03/29 04:20:43;;;;;;;35.03;21.83;;;;;;;;;;5044509;28;20048;-68
2022/03/29 04:23:09;;;;;;;40.70;23.98;;;;;;;;;;5032115;28;20049;-69
2022/03/29 04:25:35;;;;;;;40.15;23.67;;;;;;;;;;5044798;28;20413;-69
2022/03/29 04:28:02;;;;;;;39.05;22.20;;;;;;;;;;5035996;28;20558;-68
2022/03/29 04:30:28;;;;;;;38.25;23.27;;;;;;;;;;5034697;28;20438;-68
2022/03/29 04:32:55;;;;;;;40.03;22.58;;;;;;;;;;5050439;28;20057;-69
2022/03/29 04:35:22;;;;;;;36.95;22.35;;;;;;;;;;5023519;28;20045;-67
2022/03/29 04:37:48;;;;;;;44.10;23.98;;;;;;;;;;5037143;28;20045;-68
2022/03/29 04:40:14;;;;;;;39.25;23.55;;;;;;;;;;5048413;28;20750;-68
2022/03/29 04:42:41;;;;;;;43.78;24.08;;;;;;;;;;5023380;28;20050;-68
2022/03/29 04:45:09;;;;;;;44.42;23.38;;;;;;;;;;5040858;28;20053;-68
2022/03/29 04:47:35;;;;;;;45.35;22.50;;;;;;;;;;5036431;28;20058;-68
2022/03/29 04:50:01;;;;;;;41.25;22.90;;;;;;;;;;5039330;28;20056;-68
2022/03/29 04:52:28;;;;;;;45.15;23.20;;;;;;;;;;5035310;28;20065;-68
2022/03/29 04:54:54;;;;;;;41.05;23.77;;;;;;;;;;5041619;28;20060;-68
2022/03/29 04:57:20;;;;;;;42.20;23.38;;;;;;;;;;5053679;28;20041;-68
2022/03/29 04:59:47;;;;;;;44.30;23.65;;;;;;;;;;5036999;28;20075;-68
2022/03/29 05:02:13;;;;;;;37.03;20.52;;;;;;;;;;5033505;28;20133;-68
2022/03/29 05:04:40;;;;;;;44.28;22.98;;;;;;;;;;5022588;28;20517;-69
2022/03/29 05:07:06;;;;;;;42.05;23.13;;;;;;;;;;5032116;28;20045;-68
2022/03/29 05:09:32;;;;;;;41.83;23.08;;;;;;;;;;5038795;28;20041;-68
2022/03/29 05:11:59;;;;;;;42.80;22.80;;;;;;;;;;5051402;28;20953;-68
2022/03/29 05:14:25;;;;;;;39.83;22.80;;;;;;;;;;5040674;28;20402;-68
2022/03/29 05:16:52;;;;;;;41.70;23.25;;;;;;;;;;5030237;28;20053;-67
2022/03/29 05:19:18;;;;;;;40.08;22.60;;;;;;;;;;5044350;28;20041;-67
2022/03/29 05:21:44;;;;;;;40.22;23.83;;;;;;;;;;5038156;28;20060;-68
2022/03/29 05:24:11;;;;;;;38.60;22.35;;;;;;;;;;5053068;28;20049;-67
2022/03/29 05:26:37;;;;;;;44.00;23.83;;;;;;;;;;5035293;28;20053;-68
2022/03/29 05:29:04;;;;;;;40.92;23.60;;;;;;;;;;5022921;28;20049;-68
2022/03/29 05:31:30;;;;;;;39.10;22.20;;;;;;;;;;5032796;28;20048;-69
2022/03/29 05:33:56;;;;;;;42.88;22.63;;;;;;;;;;5015067;28;20133;-68
2022/03/29 05:36:24;;;;;;;41.72;23.13;;;;;;;;;;5026979;28;20046;-68
2022/03/29 05:38:51;;;;;;;42.83;22.30;;;;;;;;;;5012111;28;20045;-67
2022/03/29 05:41:20;;;;;;;39.22;22.88;;;;;;;;;;5036557;28;20413;-67
2022/03/29 05:43:47;;;;;;;40.35;21.73;;;;;;;;;;5041867;28;20324;-67
2022/03/29 05:49:00;;;;;;;43.42;23.13;;;;;;;;;;5038193;28;20422;-68
2022/03/29 05:51:28;;;;;;;40.85;21.85;;;;;;;;;;5042378;28;20155;-70
2022/03/29 05:53:55;;;;;;;38.10;22.33;;;;;;;;;;5034033;28;20049;-69
2022/03/29 05:56:22;;;;;;;39.13;21.17;;;;;;;;;;5026477;28;20048;-68
2022/03/29 05:58:49;;;;;;;35.35;21.70;;;;;;;;;;5024797;28;20055;-67
2022/03/29 06:01:16;;;;;;;45.22;22.45;;;;;;;;;;5027701;28;20148;-68
2022/03/29 06:03:43;;;;;;;36.90;20.88;;;;;;;;;;5047158;28;20063;-68
2022/03/29 06:06:09;;;;;;;41.92;21.98;;;;;;;;;;5047761;28;20057;-68
2022/03/29 06:08:37;;;;;;;39.00;22.23;;;;;;;;;;5031433;28;20726;-68
2022/03/29 06:11:07;;;;;;;38.33;21.67;;;;;;;;;;5042496;28;20057;-68
2022/03/29 06:13:34;;;;;;;37.33;22.13;;;;;;;;;;5040532;28;20049;-69
2022/03/29 06:16:00;;;;;;;44.50;22.10;;;;;;;;;;5044610;28;20053;-69
2022/03/29 06:18:27;;;;;;;38.90;21.30;;;;;;;;;;5036503;28;20485;-70
2022/03/29 06:20:53;;;;;;;42.28;22.80;;;;;;;;;;5034529;28;20064;-69
2022/03/29 06:23:19;;;;;;;42.55;22.17;;;;;;;;;;5043105;28;20217;-69
2022/03/29 06:25:46;;;;;;;44.05;22.88;;;;;;;;;;5037309;28;20048;-69
2022/03/29 06:28:14;;;;;;;39.45;21.85;;;;;;;;;;5036606;28;20041;-69
2022/03/29 06:30:40;;;;;;;41.97;22.97;;;;;;;;;;5043073;28;20662;-69
2022/03/29 06:33:06;;;;;;;44.90;23.27;;;;;;;;;;5029999;28;20045;-69
2022/03/29 06:35:35;;;;;;;40.28;21.40;;;;;;;;;;5040191;28;20045;-69
2022/03/29 06:38:01;;;;;;;42.85;20.83;;;;;;;;;;5037805;28;20049;-69
2022/03/29 06:40:28;;;;;;;43.47;24.02;;;;;;;;;;5040249;28;20049;-69
2022/03/29 06:42:55;;;;;;;42.83;23.73;;;;;;;;;;5040618;28;20045;-69
2022/03/29 06:45:22;;;;;;;40.28;21.88;;;;;;;;;;5042889;28;20124;-68
2022/03/29 06:47:49;;;;;;;43.78;22.80;;;;;;;;;;5044254;28;20053;-69
2022/03/29 06:50:15;;;;;;;40.65;22.90;;;;;;;;;;5034771;28;20054;-69
2022/03/29 06:52:42;;;;;;;42.88;23.17;;;;;;;;;;5046365;28;20045;-70
2022/03/29 06:55:10;;;;;;;42.58;23.58;;;;;;;;;;5029081;28;20044;-70
2022/03/29 06:57:37;;;;;;;37.35;19.02;;;;;;;;;;5049196;28;20428;-70
2022/03/29 07:00:04;;;;;;;41.20;21.95;;;;;;;;;;5038921;28;20063;-70
2022/03/29 07:02:30;;;;;;;40.42;21.15;;;;;;;;;;5042643;28;20063;-69
2022/03/29 07:04:57;;;;;;;42.65;22.75;;;;;;;;;;5031513;28;20081;-69
2022/03/29 07:07:23;;;;;;;35.28;20.65;;;;;;;;;;5034267;28;20064;-69
2022/03/29 07:12:54;;;;;;;37.22;20.48;;;;;;;;;;5043465;28;20045;-69
2022/03/29 07:15:21;;;;;;;41.88;21.60;;;;;;;;;;5031422;28;20679;-69
2022/03/29 07:17:48;;;;;;;39.28;21.05;;;;;;;;;;5033573;28;20051;-70
2022/03/29 07:20:19;;;;;;;40.60;21.23;;;;;;;;;;5040551;28;20098;-70
2022/03/29 07:22:49;;;;;;;39.47;22.10;;;;;;;;;;5045286;28;20123;-69
2022/03/29 07:25:18;;;;;;;38.28;21.15;;;;;;;;;;5041389;28;20056;-69
2022/03/29 07:27:45;;;;;;;37.80;22.27;;;;;;;;;;5032270;28;20076;-69
2022/03/29 07:30:12;;;;;;;40.45;21.65;;;;;;;;;;5057640;28;20049;-70
2022/03/29 07:32:42;;;;;;;39.78;21.33;;;;;;;;;;5046428;28;20056;-70
2022/03/29 07:35:10;;;;;;;44.38;22.40;;;;;;;;;;5043802;28;20067;-69
2022/03/29 07:37:36;;;;;;;38.67;21.85;;;;;;;;;;5055349;28;20460;-70
2022/03/29 07:40:03;;;;;;;38.05;20.70;;;;;;;;;;5030036;28;20053;-69
2022/03/29 07:42:31;;;;;;;38.47;20.55;;;;;;;;;;5047327;28;20062;-69
2022/03/29 07:44:57;;;;;;;40.53;22.42;;;;;;;;;;5042673;28;20053;-69
2022/03/29 07:47:24;;;;;;;40.83;21.75;;;;;;;;;;5043736;28;20045;-69
2022/03/29 07:50:08;;;;;;;37.55;20.15;;;;;;;;;;5024373;28;20051;-69
2022/03/29 07:52:53;;;;;;;35.10;20.35;;;;;;;;;;5041910;28;20048;-69
2022/03/29 07:55:20;;;;;;;33.97;19.27;;;;;;;;;;5040544;28;20055;-69
2022/03/29 07:58:06;;;;;;;33.53;18.52;;;;;;;;;;5035599;28;20147;-69
2022/03/29 08:00:32;;;;;;;36.30;20.20;;;;;;;;;;5032041;28;20057;-69
2022/03/29 08:03:04;;;;;;;37.05;21.17;;;;;;;;;;5028633;28;20051;-69
2022/03/29 08:05:31;;;;;;;36.65;20.05;;;;;;;;;;5046658;28;20045;-69
2022/03/29 08:07:58;;;;;;;33.83;20.17;;;;;;;;;;5036048;28;20049;-69
2022/03/29 08:10:27;;;;;;;38.25;21.40;;;;;;;;;;5043714;28;20427;-69
2022/03/29 08:12:58;;;;;;;35.35;19.52;;;;;;;;;;5036664;28;20060;-68
2022/03/29 08:15:25;;;;;;;36.03;20.02;;;;;;;;;;5034775;28;20053;-69
2022/03/29 08:17:58;;;;;;;34.88;19.73;;;;;;;;;;5035945;28;20110;-69
2022/03/29 08:20:25;;;;;;;39.35;21.63;;;;;;;;;;5029968;28;20053;-69
2022/03/29 08:22:53;;;;;;;37.97;21.08;;;;;;;;;;5054103;28;20045;-69
2022/03/29 08:25:21;;;;;;;39.53;20.90;;;;;;;;;;5041506;28;20421;-69
2022/03/29 08:27:48;;;;;;;39.55;21.15;;;;;;;;;;5028990;28;20053;-68
2022/03/29 08:30:15;;;;;;;42.28;21.98;;;;;;;;;;5015742;28;20049;-69
2022/03/29 08:32:42;;;;;;;42.10;21.95;;;;;;;;;;5045926;28;20053;-69
2022/03/29 08:35:12;;;;;;;44.63;22.60;;;;;;;;;;5045206;28;20558;-69
2022/03/29 08:37:39;;;;;;;44.22;23.73;;;;;;;;;;5032026;28;20057;-69
2022/03/29 08:40:07;;;;;;;36.88;20.52;;;;;;;;;;5055569;28;20051;-69
2022/03/29 08:42:33;;;;;;;44.93;24.93;;;;;;;;;;5036280;28;20479;-69
2022/03/29 08:45:04;;;;;;;44.08;24.42;;;;;;;;;;5036122;28;20153;-69
2022/03/29 08:47:31;;;;;;;40.50;22.48;;;;;;;;;;5032075;28;20045;-69
2022/03/29 08:49:58;;;;;;;46.67;24.08;;;;;;;;;;5028587;28;20053;-69
2022/03/29 08:52:24;;;;;;;40.10;21.77;;;;;;;;;;5055324;28;20052;-69
2022/03/29 08:54:50;;;;;;;38.15;23.02;;;;;;;;;;5037244;28;20710;-69
2022/03/29 08:57:17;;;;;;;42.78;22.75;;;;;;;;;;5040850;28;20052;-69
2022/03/29 08:59:43;;;;;;;41.00;22.55;;;;;;;;;;5039965;28;20048;-69
2022/03/29 09:02:11;;;;;;;42.92;23.48;;;;;;;;;;5045171;28;20045;-69
2022/03/29 09:04:38;;;;;;;37.95;22.52;;;;;;;;;;5036572;28;20053;-69
2022/03/29 09:07:04;;;;;;;41.38;22.60;;;;;;;;;;5051121;28;20398;-69
2022/03/29 09:09:31;;;;;;;41.42;19.45;;;;;;;;;;5044836;28;20044;-69
2022/03/29 09:11:59;;;;;;;41.45;21.70;;;;;;;;;;5028610;28;20053;-69
2022/03/29 09:14:28;;;;;;;40.95;21.88;;;;;;;;;;5044848;28;20075;-68
2022/03/29 09:16:55;;;;;;;43.63;22.15;;;;;;;;;;5039379;28;20048;-68
2022/03/29 09:19:23;;;;;;;41.65;22.42;;;;;;;;;;5057237;28;20044;-69
2022/03/29 09:21:51;;;;;;;37.90;21.10;;;;;;;;;;5030396;28;20056;-69
2022/03/29 09:24:18;;;;;;;43.43;23.33;;;;;;;;;;5040347;28;20065;-69
2022/03/29 09:26:46;;;;;;;46.30;23.92;;;;;;;;;;5043910;28;20050;-69
2022/03/29 09:29:13;;;;;;;35.92;20.75;;;;;;;;;;5031425;28;20056;-69
2022/03/29 09:31:40;;;;;;;41.08;23.33;;;;;;;;;;5045087;28;20176;-69
2022/03/29 09:34:10;;;;;;;47.58;24.33;;;;;;;;;;5028827;28;20131;-69
2022/03/29 09:36:43;;;;;;;50.45;25.83;;;;;;;;;;5021049;28;20061;-69
2022/03/29 09:39:28;;;;;;;47.15;24.92;;;;;;;;;;5044057;28;20041;-69
2022/03/29 09:41:59;;;;;;;43.80;24.42;;;;;;;;;;5039882;28;20362;-69
2022/03/29 09:44:37;;;;;;;42.30;24.20;;;;;;;;;;5032121;28;20565;-69
2022/03/29 09:47:04;;;;;;;41.50;22.37;;;;;;;;;;5036693;28;20041;-69
2022/03/29 09:49:47;;;;;;;44.30;24.10;;;;;;;;;;5042995;28;20289;-70
2022/03/29 09:52:15;;;;;;;43.70;24.52;;;;;;;;;;5042628;28;20498;-69
2022/03/29 09:55:02;;;;;;;47.92;25.30;;;;;;;;;;5030576;28;20541;-69
2022/03/29 09:57:35;;;;;;;45.25;23.50;;;;;;;;;;5037902;28;20045;-69
2022/03/29 10:00:03;;;;;;;42.47;24.52;;;;;;;;;;5038127;28;20049;-69
2022/03/29 10:02:37;;;;;;;43.30;23.07;;;;;;;;;;5034684;28;20052;-69
2022/03/29 10:05:03;;;;;;;44.30;24.27;;;;;;;;;;5030842;28;20049;-69
2022/03/29 10:07:32;;;;;;;40.90;23.02;;;;;;;;;;5029520;28;20049;-68
2022/03/29 10:09:58;;;;;;;51.40;26.10;;;;;;;;;;5047380;28;20053;-69
2022/03/29 10:12:24;;;;;;;43.47;23.83;;;;;;;;;;5036997;28;20052;-68
2022/03/29 10:14:51;;;;;;;45.95;24.88;;;;;;;;;;5037045;28;20040;-69
2022/03/29 10:17:18;;;;;;;49.85;23.20;;;;;;;;;;5029535;28;20075;-69
2022/03/29 10:19:47;;;;;;;45.25;23.73;;;;;;;;;;5020255;28;20422;-69
2022/03/29 10:22:13;;;;;;;52.92;26.50;;;;;;;;;;5041430;28;20053;-69
2022/03/29 10:24:40;;;;;;;42.30;24.88;;;;;;;;;;5044687;28;20472;-69
2022/03/29 10:27:07;;;;;;;50.22;28.58;;;;;;;;;;5044607;28;20063;-69
2022/03/29 10:29:39;;;;;;;49.30;27.10;;;;;;;;;;5035708;28;20049;-69
2022/03/29 10:32:06;;;;;;;49.40;25.95;;;;;;;;;;5038241;28;20053;-69
2022/03/29 10:34:42;;;;;;;45.88;25.33;;;;;;;;;;5041311;28;20055;-69
2022/03/29 10:37:23;;;;;;;42.63;25.38;;;;;;;;;;5035909;28;20557;-69
2022/03/29 10:39:57;;;;;;;53.70;26.23;;;;;;;;;;5039624;28;20053;-69
2022/03/29 10:42:44;;;;;;;50.25;26.85;;;;;;;;;;5036520;28;20049;-69
2022/03/29 10:45:11;;;;;;;45.63;24.77;;;;;;;;;;5039543;28;20662;-69
2022/03/29 10:47:53;;;;;;;42.35;24.50;;;;;;;;;;5026461;28;20063;-69
2022/03/29 10:50:19;;;;;;;45.83;25.20;;;;;;;;;;5042247;28;20052;-69
2022/03/29 10:52:46;;;;;;;38.13;22.75;;;;;;;;;;5034435;28;20057;-69
2022/03/29 10:55:14;;;;;;;44.33;25.40;;;;;;;;;;5028243;28;20522;-69
2022/03/29 10:57:40;;;;;;;44.50;25.00;;;;;;;;;;5041873;28;20063;-69
2022/03/29 11:00:07;;;;;;;46.15;25.85;;;;;;;;;;5022470;28;20418;-68
2022/03/29 11:02:33;;;;;;;46.42;25.45;;;;;;;;;;5032341;28;20044;-69
2022/03/29 11:05:00;;;;;;;46.67;24.15;;;;;;;;;;5036817;28;20080;-68
2022/03/29 11:07:27;;;;;;;39.22;24.98;;;;;;;;;;5045585;28;20052;-68
2022/03/29 11:10:10;;;;;;;41.17;24.83;;;;;;;;;;5042852;28;20052;-68
2022/03/29 11:12:38;;;;;;;44.17;25.80;;;;;;;;;;5037834;28;20060;-69
2022/03/29 11:15:23;;;;;;;41.28;26.45;;;;;;;;;;5017383;28;20099;-69
2022/03/29 11:17:50;;;;;;;40.58;23.95;;;;;;;;;;5029560;28;20056;-69
2022/03/29 11:20:35;;;;;;;40.67;25.85;;;;;;;;;;5038418;28;20056;-69
2022/03/29 11:23:04;;;;;;;44.78;27.73;;;;;;;;;;5032398;28;20049;-68
2022/03/29 11:25:41;;;;;;;46.28;26.92;;;;;;;;;;5052097;28;20053;-68
2022/03/29 11:28:15;;;;;;;41.08;23.92;;;;;;;;;;5043783;28;20052;-68
2022/03/29 11:30:41;;;;;;;39.08;24.08;;;;;;;;;;5044634;28;20041;-69
2022/03/29 11:33:09;;;;;;;41.63;26.48;;;;;;;;;;5042830;28;20049;-68
2022/03/29 11:35:37;;;;;;;41.00;25.73;;;;;;;;;;5042934;28;20053;-68
2022/03/29 11:38:10;;;;;;;45.13;27.00;;;;;;;;;;5048711;28;20048;-68
2022/03/29 11:40:37;;;;;;;41.25;26.83;;;;;;;;;;5039769;28;20514;-68
2022/03/29 11:43:05;;;;;;;40.90;26.88;;;;;;;;;;5037739;28;20053;-68
2022/03/29 11:45:39;;;;;;;39.83;27.20;;;;;;;;;;5033345;28;20041;-68
2022/03/29 11:48:11;;;;;;;40.30;25.73;;;;;;;;;;5044435;28;20410;-69
2022/03/29 11:50:44;;;;;;;44.25;27.10;;;;;;;;;;5038131;28;20041;-69
2022/03/29 11:53:15;;;;;;;43.25;25.50;;;;;;;;;;5055979;28;20624;-69
2022/03/29 11:55:42;;;;;;;45.03;27.90;;;;;;;;;;5043497;28;20040;-68
2022/03/29 11:58:21;;;;;;;42.42;25.58;;;;;;;;;;5045170;28;20075;-68
2022/03/29 12:00:48;;;;;;;40.47;26.15;;;;;;;;;;5043667;28;20060;-68
2022/03/29 12:03:25;;;;;;;40.70;26.52;;;;;;;;;;5038731;28;20049;-68
2022/03/29 12:06:01;;;;;;;37.83;25.63;;;;;;;;;;5050092;28;20168;-69
2022/03/29 12:08:41;;;;;;;37.85;26.70;;;;;;;;;;5035449;28;20048;-69
2022/03/29 12:11:12;;;;;;;45.05;26.83;;;;;;;;;;5031451;28;20059;-68
2022/03/29 12:13:40;;;;;;;36.13;25.10;;;;;;;;;;5033643;28;20184;-70
2022/03/29 12:16:19;;;;;;;37.28;25.15;;;;;;;;;;5043271;28;20049;-69
2022/03/29 12:18:47;;;;;;;37.60;25.58;;;;;;;;;;5022208;28;20060;-69
2022/03/29 12:21:14;;;;;;;38.60;26.38;;;;;;;;;;5040790;28;20486;-68
2022/03/29 12:23:43;;;;;;;34.20;22.60;;;;;;;;;;5039885;28;20053;-69
2022/03/29 12:26:11;;;;;;;42.38;24.63;;;;;;;;;;5037452;28;20044;-68
2022/03/29 12:28:38;;;;;;;37.63;24.50;;;;;;;;;;5040951;28;20052;-68
2022/03/29 12:31:08;;;;;;;45.78;26.02;;;;;;;;;;5032823;28;20179;-68
2022/03/29 12:33:35;;;;;;;40.67;24.80;;;;;;;;;;5050293;28;20041;-70
2022/03/29 12:36:11;;;;;;;31.67;22.20;;;;;;;;;;5044000;28;20051;-69
2022/03/29 12:38:42;;;;;;;32.78;23.95;;;;;;;;;;5037562;28;20053;-68
2022/03/29 12:41:11;;;;;;;36.20;25.15;;;;;;;;;;5036854;28;20048;-69
2022/03/29 12:43:37;;;;;;;34.63;25.30;;;;;;;;;;5033023;28;20598;-69
2022/03/29 12:46:09;;;;;;;34.47;24.35;;;;;;;;;;5039990;28;20513;-68
2022/03/29 12:48:36;;;;;;;30.02;22.35;;;;;;;;;;5027827;28;20056;-68
2022/03/29 12:51:06;;;;;;;31.60;22.70;;;;;;;;;;5039277;28;20105;-69
2022/03/29 12:53:33;;;;;;;24.48;19.23;;;;;;;;;;5039947;28;20048;-68
2022/03/29 12:55:59;;;;;;;30.75;22.98;;;;;;;;;;5045429;28;20056;-68
2022/03/29 12:58:34;;;;;;;29.75;19.77;;;;;;;;;;5033190;28;20053;-70
2022/03/29 13:01:01;;;;;;;28.00;20.42;;;;;;;;;;5031553;28;20060;-69
2022/03/29 13:03:34;;;;;;;25.90;20.08;;;;;;;;;;5036621;28;20049;-69
2022/03/29 13:06:03;;;;;;;31.83;20.88;;;;;;;;;;5030469;28;20057;-68
2022/03/29 13:08:30;;;;;;;28.55;22.88;;;;;;;;;;5038215;28;20049;-68
2022/03/29 13:10:57;;;;;;;30.35;21.83;;;;;;;;;;5031105;28;20049;-68
2022/03/29 13:13:29;;;;;;;33.08;22.33;;;;;;;;;;5051246;28;20599;-69
2022/03/29 13:15:56;;;;;;;28.00;19.60;;;;;;;;;;5042991;28;20045;-69
2022/03/29 13:18:36;;;;;;;33.20;22.73;;;;;;;;;;5045274;28;20079;-68
2022/03/29 13:21:37;;;;;;;27.83;21.45;;;;;;;;;;5043005;28;20049;-69
2022/03/29 13:24:03;;;;;;;31.30;21.80;;;;;;;;;;5045682;28;20049;-68
2022/03/29 13:26:31;;;;;;;27.58;21.13;;;;;;;;;;5033853;28;20051;-69
2022/03/29 13:28:58;;;;;;;27.10;21.77;;;;;;;;;;5043378;28;20045;-69
2022/03/29 13:31:25;;;;;;;28.35;19.80;;;;;;;;;;5042659;28;20055;-68
2022/03/29 13:33:52;;;;;;;28.70;20.63;;;;;;;;;;5024747;28;20091;-69
2022/03/29 13:36:20;;;;;;;28.20;19.70;;;;;;;;;;5040321;28;20045;-68
2022/03/29 13:38:47;;;;;;;22.80;19.37;;;;;;;;;;5034250;28;20477;-69
2022/03/29 13:41:13;;;;;;;27.20;18.75;;;;;;;;;;5038830;28;20056;-68
2022/03/29 13:43:41;;;;;;;28.48;19.30;;;;;;;;;;5045003;28;20492;-69
2022/03/29 13:46:08;;;;;;;26.08;18.67;;;;;;;;;;5037877;28;20048;-69
2022/03/29 13:48:54;;;;;;;24.33;18.58;;;;;;;;;;5042718;28;20055;-68
2022/03/29 13:51:21;;;;;;;25.23;19.13;;;;;;;;;;5027403;28;20486;-69
2022/03/29 13:53:47;;;;;;;28.25;20.42;;;;;;;;;;5040172;28;20049;-69
2022/03/29 13:56:14;;;;;;;28.15;21.10;;;;;;;;;;5043826;28;20557;-68
2022/03/29 13:58:41;;;;;;;28.30;19.85;;;;;;;;;;5039407;28;20049;-70
2022/03/29 14:01:07;;;;;;;28.75;18.33;;;;;;;;;;5038017;28;20048;-68
2022/03/29 14:03:34;;;;;;;28.10;20.52;;;;;;;;;;5038580;28;20129;-69
2022/03/29 14:06:03;;;;;;;25.08;18.88;;;;;;;;;;5035844;28;20099;-68
2022/03/29 14:08:30;;;;;;;28.58;21.15;;;;;;;;;;5038536;28;20064;-69
2022/03/29 14:10:58;;;;;;;32.45;22.33;;;;;;;;;;5049930;28;20533;-69
2022/03/29 14:13:28;;;;;;;28.83;19.77;;;;;;;;;;5035493;28;20053;-68
2022/03/29 14:15:55;;;;;;;25.73;18.77;;;;;;;;;;5038892;28;21098;-69
2022/03/29 14:18:23;;;;;;;24.25;17.45;;;;;;;;;;5047576;28;20045;-69
2022/03/29 14:20:50;;;;;;;25.55;18.85;;;;;;;;;;5044961;28;20059;-69
2022/03/29 14:23:18;;;;;;;26.08;17.00;;;;;;;;;;5045219;28;20045;-68
2022/03/29 14:25:44;;;;;;;20.60;15.40;;;;;;;;;;5045629;28;20060;-69
2022/03/29 14:28:11;;;;;;;22.98;17.35;;;;;;;;;;5048355;28;20056;-68
2022/03/29 14:30:39;;;;;;;26.58;17.38;;;;;;;;;;5034827;28;20454;-69
2022/03/29 14:33:06;;;;;;;20.83;15.90;;;;;;;;;;5039228;28;20053;-68